Eagle San Antonio — 9V9330 — position and weather

sailwx.info

Track history (hours):
 
Tides and Currents Weather Stations Pressure Air Temp Water Temp Dewpoint Dewpoint Depression Visibility Wind Speed Wind Dir Waves Ship Positions

Eagle San Antonio

Last reported at 2016-Sep-09 03:23 UTC. Time now 2016-Sep-30 23:51 UTC.
Position N 29°47' W 093°21'.
Warning: this ship's position is 21 days out of date.

Length 274 m; draft 9.3 m.

Type: Ship. MMSI: 566453000.

Date/timePositionNaut miles runAvg speedWind from/ knotsBaromVisibWave heightAir tempDewpointWater temp
2016-Sep-09 03:23N 29°47' W 093°21'7 7.9
2016-Sep-09 02:33N 29°54' W 093°21'8 8.2
2016-Sep-09 01:33N 30°02' W 093°20'7 6.7
2016-Sep-09 00:33N 30°09' W 093°20'2 2.5
2016-Sep-08 23:33N 30°11' W 093°18'0 0.1
2016-Sep-08 22:32N 30°11' W 093°18'0 0.0
2016-Sep-08 21:32N 30°11' W 093°18'0 0.0
2016-Sep-08 20:32N 30°11' W 093°18'0 0.0
2016-Sep-08 19:32N 30°11' W 093°18'0 0.0
2016-Sep-08 18:32N 30°11' W 093°18'0 0.0
2016-Sep-08 17:29N 30°11' W 093°18'0 0.0
2016-Sep-08 16:32N 30°11' W 093°18'0 0.0
2016-Sep-08 15:32N 30°11' W 093°18'0 0.0
2016-Sep-08 14:32N 30°11' W 093°18'0 0.0
2016-Sep-08 13:26N 30°11' W 093°18'0 0.0
2016-Sep-08 12:32N 30°11' W 093°18'0 0.1
2016-Sep-08 11:34N 30°11' W 093°19'2 1.7
2016-Sep-08 10:33N 30°10' W 093°20'0 0.0
2016-Sep-08 09:33N 30°10' W 093°20'0 0.0
2016-Sep-08 08:33N 30°10' W 093°20'0 0.0
2016-Sep-08 07:33N 30°10' W 093°20'0 0.0
2016-Sep-08 06:33N 30°10' W 093°20'0 0.0
2016-Sep-08 05:33N 30°10' W 093°20'0 0.0
2016-Sep-08 04:33N 30°10' W 093°20'0 0.0
2016-Sep-08 03:33N 30°10' W 093°20'0 0.0
2016-Sep-08 02:33N 30°10' W 093°20'0 0.0
2016-Sep-08 01:33N 30°10' W 093°20'0 0.0
2016-Sep-08 00:33N 30°10' W 093°20'0 0.0
2016-Sep-07 23:33N 30°10' W 093°20'0 0.0
2016-Sep-07 22:33N 30°10' W 093°20'0 0.0
2016-Sep-07 21:30N 30°10' W 093°20'0 0.0
2016-Sep-07 20:33N 30°10' W 093°20'0 0.0
2016-Sep-07 19:33N 30°10' W 093°20'0 0.0
2016-Sep-07 18:33N 30°10' W 093°20'0 0.0
2016-Sep-07 17:33N 30°10' W 093°20'0 0.0
2016-Sep-07 16:33N 30°10' W 093°20'0 0.0
2016-Sep-07 15:33N 30°10' W 093°20'0 0.0
2016-Sep-07 14:33N 30°10' W 093°20'0 0.0
2016-Sep-07 13:33N 30°10' W 093°20'0 0.0
2016-Sep-07 12:33N 30°10' W 093°20'0 0.0
2016-Sep-07 11:33N 30°10' W 093°20'0 0.0
2016-Sep-07 10:33N 30°10' W 093°20'0 0.0
2016-Sep-07 09:33N 30°10' W 093°20'0 0.0
2016-Sep-07 08:33N 30°10' W 093°20'0 0.0
2016-Sep-07 07:33N 30°10' W 093°20'0 0.0
2016-Sep-07 06:33N 30°10' W 093°20'0 0.0
2016-Sep-07 04:33N 30°10' W 093°20'0 0.0
2016-Sep-07 03:33N 30°10' W 093°20'1 0.6
2016-Sep-07 02:33N 30°09' W 093°20'5 4.7
2016-Sep-07 01:33N 30°04' W 093°20'5 5.3
2016-Sep-07 00:33N 29°59' W 093°20'7 7.1
2016-Sep-06 23:33N 29°52' W 093°21'9 8.5
2016-Sep-06 22:33N 29°44' W 093°20'  
Track history (hours):
 
Tides and Currents Weather Stations Pressure Air Temp Water Temp Dewpoint Dewpoint Depression Visibility Wind Speed Wind Dir Waves Ship Positions

Eagle San Antonio

Last reported at 2016-Sep-09 03:23 UTC. Time now 2016-Sep-30 23:51 UTC.
Position N 29°47' W 093°21'.
Warning: this ship's position is 21 days out of date.

Length 274 m; draft 9.3 m.

Type: Ship. MMSI: 566453000.

Date/timePositionNaut miles runAvg speedWind from/ knotsBaromVisibWave heightAir tempDewpointWater temp
2016-Sep-09 03:23N 29°47' W 093°21'7 7.9
2016-Sep-09 02:33N 29°54' W 093°21'8 8.2
2016-Sep-09 01:33N 30°02' W 093°20'7 6.7
2016-Sep-09 00:33N 30°09' W 093°20'2 2.5
2016-Sep-08 23:33N 30°11' W 093°18'0 0.1
2016-Sep-08 22:32N 30°11' W 093°18'0 0.0
2016-Sep-08 21:32N 30°11' W 093°18'0 0.0
2016-Sep-08 20:32N 30°11' W 093°18'0 0.0
2016-Sep-08 19:32N 30°11' W 093°18'0 0.0
2016-Sep-08 18:32N 30°11' W 093°18'0 0.0
2016-Sep-08 17:29N 30°11' W 093°18'0 0.0
2016-Sep-08 16:32N 30°11' W 093°18'0 0.0
2016-Sep-08 15:32N 30°11' W 093°18'0 0.0
2016-Sep-08 14:32N 30°11' W 093°18'0 0.0
2016-Sep-08 13:26N 30°11' W 093°18'0 0.0
2016-Sep-08 12:32N 30°11' W 093°18'0 0.1
2016-Sep-08 11:34N 30°11' W 093°19'2 1.7
2016-Sep-08 10:33N 30°10' W 093°20'0 0.0
2016-Sep-08 09:33N 30°10' W 093°20'0 0.0
2016-Sep-08 08:33N 30°10' W 093°20'0 0.0
2016-Sep-08 07:33N 30°10' W 093°20'0 0.0
2016-Sep-08 06:33N 30°10' W 093°20'0 0.0
2016-Sep-08 05:33N 30°10' W 093°20'0 0.0
2016-Sep-08 04:33N 30°10' W 093°20'0 0.0
2016-Sep-08 03:33N 30°10' W 093°20'0 0.0
2016-Sep-08 02:33N 30°10' W 093°20'0 0.0
2016-Sep-08 01:33N 30°10' W 093°20'0 0.0
2016-Sep-08 00:33N 30°10' W 093°20'0 0.0
2016-Sep-07 23:33N 30°10' W 093°20'0 0.0
2016-Sep-07 22:33N 30°10' W 093°20'0 0.0
2016-Sep-07 21:30N 30°10' W 093°20'0 0.0
2016-Sep-07 20:33N 30°10' W 093°20'0 0.0
2016-Sep-07 19:33N 30°10' W 093°20'0 0.0
2016-Sep-07 18:33N 30°10' W 093°20'0 0.0
2016-Sep-07 17:33N 30°10' W 093°20'0 0.0
2016-Sep-07 16:33N 30°10' W 093°20'0 0.0
2016-Sep-07 15:33N 30°10' W 093°20'0 0.0
2016-Sep-07 14:33N 30°10' W 093°20'0 0.0
2016-Sep-07 13:33N 30°10' W 093°20'0 0.0
2016-Sep-07 12:33N 30°10' W 093°20'0 0.0
2016-Sep-07 11:33N 30°10' W 093°20'0 0.0
2016-Sep-07 10:33N 30°10' W 093°20'0 0.0
2016-Sep-07 09:33N 30°10' W 093°20'0 0.0
2016-Sep-07 08:33N 30°10' W 093°20'0 0.0
2016-Sep-07 07:33N 30°10' W 093°20'0 0.0
2016-Sep-07 06:33N 30°10' W 093°20'0 0.0
2016-Sep-07 04:33N 30°10' W 093°20'0 0.0
2016-Sep-07 03:33N 30°10' W 093°20'1 0.6
2016-Sep-07 02:33N 30°09' W 093°20'5 4.7
2016-Sep-07 01:33N 30°04' W 093°20'5 5.3
2016-Sep-07 00:33N 29°59' W 093°20'7 7.1
2016-Sep-06 23:33N 29°52' W 093°21'9 8.5
2016-Sep-06 22:33N 29°44' W 093°20'  

Dump ship's entire track history